sensor_id;sensor_type;location;lat;lon;timestamp;P1;durP1;ratioP1;P2;durP2;ratioP2
10550;SDS011;5324;50.684;3.862;2022-07-05T00:00:09;2.07;;;1.70;;
10550;SDS011;5324;50.684;3.862;2022-07-05T00:02:36;2.90;;;1.60;;
10550;SDS011;5324;50.684;3.862;2022-07-05T00:05:02;1.93;;;1.80;;
10550;SDS011;5324;50.684;3.862;2022-07-05T00:07:28;2.53;;;2.00;;
10550;SDS011;5324;50.684;3.862;2022-07-05T00:09:55;3.17;;;1.97;;
10550;SDS011;5324;50.684;3.862;2022-07-05T00:12:23;4.63;;;2.00;;
10550;SDS011;5324;50.684;3.862;2022-07-05T00:14:50;4.10;;;2.10;;
10550;SDS011;5324;50.684;3.862;2022-07-05T00:17:16;2.47;;;2.07;;
10550;SDS011;5324;50.684;3.862;2022-07-05T00:19:43;2.07;;;1.87;;
10550;SDS011;5324;50.684;3.862;2022-07-05T00:22:09;1.67;;;1.57;;
10550;SDS011;5324;50.684;3.862;2022-07-05T00:24:35;1.70;;;1.57;;
10550;SDS011;5324;50.684;3.862;2022-07-05T00:27:01;1.80;;;1.70;;
10550;SDS011;5324;50.684;3.862;2022-07-05T00:29:28;3.03;;;1.73;;
10550;SDS011;5324;50.684;3.862;2022-07-05T00:31:54;2.90;;;1.80;;
10550;SDS011;5324;50.684;3.862;2022-07-05T00:34:20;1.60;;;1.50;;
10550;SDS011;5324;50.684;3.862;2022-07-05T00:36:46;2.67;;;1.90;;
10550;SDS011;5324;50.684;3.862;2022-07-05T00:39:12;2.17;;;1.97;;
10550;SDS011;5324;50.684;3.862;2022-07-05T00:41:39;2.13;;;1.90;;
10550;SDS011;5324;50.684;3.862;2022-07-05T00:44:06;1.90;;;1.80;;
10550;SDS011;5324;50.684;3.862;2022-07-05T00:46:32;2.83;;;2.07;;
10550;SDS011;5324;50.684;3.862;2022-07-05T00:48:59;1.83;;;1.73;;
10550;SDS011;5324;50.684;3.862;2022-07-05T00:51:26;1.73;;;1.63;;
10550;SDS011;5324;50.684;3.862;2022-07-05T00:53:52;2.10;;;1.80;;
10550;SDS011;5324;50.684;3.862;2022-07-05T00:56:18;2.27;;;2.07;;
10550;SDS011;5324;50.684;3.862;2022-07-05T00:58:45;1.70;;;1.60;;
10550;SDS011;5324;50.684;3.862;2022-07-05T01:01:11;4.00;;;2.20;;
10550;SDS011;5324;50.684;3.862;2022-07-05T01:03:37;1.77;;;1.67;;
10550;SDS011;5324;50.684;3.862;2022-07-05T01:06:07;1.83;;;1.70;;
10550;SDS011;5324;50.684;3.862;2022-07-05T01:08:35;2.67;;;1.90;;
10550;SDS011;5324;50.684;3.862;2022-07-05T01:11:01;4.17;;;2.10;;
10550;SDS011;5324;50.684;3.862;2022-07-05T01:13:27;4.13;;;1.80;;
10550;SDS011;5324;50.684;3.862;2022-07-05T01:15:53;6.63;;;2.00;;
10550;SDS011;5324;50.684;3.862;2022-07-05T01:18:20;1.90;;;1.80;;
10550;SDS011;5324;50.684;3.862;2022-07-05T01:20:47;2.27;;;1.87;;
10550;SDS011;5324;50.684;3.862;2022-07-05T01:23:13;2.30;;;1.80;;
10550;SDS011;5324;50.684;3.862;2022-07-05T01:25:39;1.83;;;1.63;;
10550;SDS011;5324;50.684;3.862;2022-07-05T01:28:05;2.47;;;1.93;;
10550;SDS011;5324;50.684;3.862;2022-07-05T01:30:33;2.73;;;2.10;;
10550;SDS011;5324;50.684;3.862;2022-07-05T01:32:59;1.93;;;1.83;;
10550;SDS011;5324;50.684;3.862;2022-07-05T01:35:25;3.33;;;2.53;;
10550;SDS011;5324;50.684;3.862;2022-07-05T01:37:52;2.47;;;1.90;;
10550;SDS011;5324;50.684;3.862;2022-07-05T01:40:18;2.20;;;2.00;;
10550;SDS011;5324;50.684;3.862;2022-07-05T01:42:44;2.27;;;1.83;;
10550;SDS011;5324;50.684;3.862;2022-07-05T01:45:11;2.00;;;1.90;;
10550;SDS011;5324;50.684;3.862;2022-07-05T01:47:38;2.73;;;2.07;;
10550;SDS011;5324;50.684;3.862;2022-07-05T01:50:09;1.63;;;1.50;;
10550;SDS011;5324;50.684;3.862;2022-07-05T01:52:38;1.60;;;1.50;;
10550;SDS011;5324;50.684;3.862;2022-07-05T01:55:06;1.93;;;1.80;;
10550;SDS011;5324;50.684;3.862;2022-07-05T01:57:32;1.87;;;1.73;;
10550;SDS011;5324;50.684;3.862;2022-07-05T01:59:58;3.27;;;2.00;;
10550;SDS011;5324;50.684;3.862;2022-07-05T02:02:24;2.90;;;1.93;;
10550;SDS011;5324;50.684;3.862;2022-07-05T02:04:50;2.10;;;1.90;;
10550;SDS011;5324;50.684;3.862;2022-07-05T02:07:16;2.33;;;1.90;;
10550;SDS011;5324;50.684;3.862;2022-07-05T02:09:42;4.90;;;1.83;;
10550;SDS011;5324;50.684;3.862;2022-07-05T02:12:08;6.33;;;2.47;;
10550;SDS011;5324;50.684;3.862;2022-07-05T02:14:34;3.13;;;2.50;;
10550;SDS011;5324;50.684;3.862;2022-07-05T02:17:01;5.03;;;2.63;;
10550;SDS011;5324;50.684;3.862;2022-07-05T02:19:27;3.93;;;2.70;;
10550;SDS011;5324;50.684;3.862;2022-07-05T02:21:53;4.23;;;2.87;;
10550;SDS011;5324;50.684;3.862;2022-07-05T02:24:20;3.70;;;2.97;;
10550;SDS011;5324;50.684;3.862;2022-07-05T02:26:47;3.37;;;2.70;;
10550;SDS011;5324;50.684;3.862;2022-07-05T02:29:13;4.53;;;3.10;;
10550;SDS011;5324;50.684;3.862;2022-07-05T02:31:39;3.30;;;2.83;;
10550;SDS011;5324;50.684;3.862;2022-07-05T02:34:05;6.27;;;2.77;;
10550;SDS011;5324;50.684;3.862;2022-07-05T02:36:31;3.40;;;2.70;;
10550;SDS011;5324;50.684;3.862;2022-07-05T02:38:57;3.00;;;2.50;;
10550;SDS011;5324;50.684;3.862;2022-07-05T02:41:23;3.50;;;2.50;;
10550;SDS011;5324;50.684;3.862;2022-07-05T02:43:49;4.20;;;2.60;;
10550;SDS011;5324;50.684;3.862;2022-07-05T02:46:15;6.93;;;3.37;;
10550;SDS011;5324;50.684;3.862;2022-07-05T02:48:41;4.03;;;3.50;;
10550;SDS011;5324;50.684;3.862;2022-07-05T02:51:07;3.67;;;3.10;;
10550;SDS011;5324;50.684;3.862;2022-07-05T02:53:33;5.00;;;3.23;;
10550;SDS011;5324;50.684;3.862;2022-07-05T02:55:59;3.40;;;3.10;;
10550;SDS011;5324;50.684;3.862;2022-07-05T02:58:26;3.00;;;2.30;;
10550;SDS011;5324;50.684;3.862;2022-07-05T03:00:52;5.17;;;3.20;;
10550;SDS011;5324;50.684;3.862;2022-07-05T03:03:18;3.43;;;3.10;;
10550;SDS011;5324;50.684;3.862;2022-07-05T03:05:44;3.80;;;2.87;;
10550;SDS011;5324;50.684;3.862;2022-07-05T03:08:10;3.10;;;2.67;;
10550;SDS011;5324;50.684;3.862;2022-07-05T03:10:36;3.10;;;2.63;;
10550;SDS011;5324;50.684;3.862;2022-07-05T03:13:04;3.30;;;2.30;;
10550;SDS011;5324;50.684;3.862;2022-07-05T03:15:30;4.33;;;2.80;;
10550;SDS011;5324;50.684;3.862;2022-07-05T03:17:56;3.40;;;2.60;;
10550;SDS011;5324;50.684;3.862;2022-07-05T03:20:22;3.40;;;2.63;;
10550;SDS011;5324;50.684;3.862;2022-07-05T03:22:48;2.90;;;2.60;;
10550;SDS011;5324;50.684;3.862;2022-07-05T03:25:14;3.03;;;2.60;;
10550;SDS011;5324;50.684;3.862;2022-07-05T03:27:40;3.07;;;2.80;;
10550;SDS011;5324;50.684;3.862;2022-07-05T03:30:06;3.90;;;2.67;;
10550;SDS011;5324;50.684;3.862;2022-07-05T03:32:32;5.13;;;2.90;;
10550;SDS011;5324;50.684;3.862;2022-07-05T03:34:58;2.43;;;1.90;;
10550;SDS011;5324;50.684;3.862;2022-07-05T03:37:24;3.00;;;2.77;;
10550;SDS011;5324;50.684;3.862;2022-07-05T03:39:50;3.97;;;2.60;;
10550;SDS011;5324;50.684;3.862;2022-07-05T03:42:16;3.57;;;2.47;;
10550;SDS011;5324;50.684;3.862;2022-07-05T03:44:42;7.00;;;2.73;;
10550;SDS011;5324;50.684;3.862;2022-07-05T03:47:08;4.43;;;3.00;;
10550;SDS011;5324;50.684;3.862;2022-07-05T03:49:34;5.00;;;2.43;;
10550;SDS011;5324;50.684;3.862;2022-07-05T03:52:00;5.30;;;2.50;;
10550;SDS011;5324;50.684;3.862;2022-07-05T03:54:26;2.57;;;2.03;;
10550;SDS011;5324;50.684;3.862;2022-07-05T03:56:52;4.83;;;2.70;;
10550;SDS011;5324;50.684;3.862;2022-07-05T03:59:18;4.93;;;2.70;;
10550;SDS011;5324;50.684;3.862;2022-07-05T04:01:44;5.73;;;3.00;;
10550;SDS011;5324;50.684;3.862;2022-07-05T04:04:10;3.20;;;2.60;;
10550;SDS011;5324;50.684;3.862;2022-07-05T04:06:36;4.27;;;2.37;;
10550;SDS011;5324;50.684;3.862;2022-07-05T04:09:02;4.20;;;2.70;;
10550;SDS011;5324;50.684;3.862;2022-07-05T04:11:28;6.37;;;2.70;;
10550;SDS011;5324;50.684;3.862;2022-07-05T04:13:54;4.60;;;2.10;;
10550;SDS011;5324;50.684;3.862;2022-07-05T04:16:20;4.50;;;2.57;;
10550;SDS011;5324;50.684;3.862;2022-07-05T04:18:47;4.90;;;2.60;;
10550;SDS011;5324;50.684;3.862;2022-07-05T04:21:13;5.40;;;2.60;;
10550;SDS011;5324;50.684;3.862;2022-07-05T04:23:39;3.83;;;2.00;;
10550;SDS011;5324;50.684;3.862;2022-07-05T04:26:05;3.83;;;2.37;;
10550;SDS011;5324;50.684;3.862;2022-07-05T04:28:31;4.50;;;2.50;;
10550;SDS011;5324;50.684;3.862;2022-07-05T04:30:57;3.10;;;2.33;;
10550;SDS011;5324;50.684;3.862;2022-07-05T04:33:23;3.87;;;2.37;;
10550;SDS011;5324;50.684;3.862;2022-07-05T04:35:50;5.47;;;2.40;;
10550;SDS011;5324;50.684;3.862;2022-07-05T04:38:16;4.47;;;2.93;;
10550;SDS011;5324;50.684;3.862;2022-07-05T04:40:42;7.37;;;3.73;;
10550;SDS011;5324;50.684;3.862;2022-07-05T04:43:08;8.43;;;2.50;;
10550;SDS011;5324;50.684;3.862;2022-07-05T04:45:34;3.77;;;2.63;;
10550;SDS011;5324;50.684;3.862;2022-07-05T04:48:00;3.80;;;2.50;;
10550;SDS011;5324;50.684;3.862;2022-07-05T04:50:26;6.40;;;2.80;;
10550;SDS011;5324;50.684;3.862;2022-07-05T04:52:52;4.00;;;2.70;;
10550;SDS011;5324;50.684;3.862;2022-07-05T04:55:18;2.80;;;2.17;;
10550;SDS011;5324;50.684;3.862;2022-07-05T04:57:44;2.80;;;2.37;;
10550;SDS011;5324;50.684;3.862;2022-07-05T05:00:11;2.83;;;2.10;;
10550;SDS011;5324;50.684;3.862;2022-07-05T05:02:38;5.10;;;2.60;;
10550;SDS011;5324;50.684;3.862;2022-07-05T05:05:04;2.60;;;2.10;;
10550;SDS011;5324;50.684;3.862;2022-07-05T05:07:30;3.53;;;2.30;;
10550;SDS011;5324;50.684;3.862;2022-07-05T05:09:57;3.20;;;2.40;;
10550;SDS011;5324;50.684;3.862;2022-07-05T05:12:23;3.47;;;2.47;;
10550;SDS011;5324;50.684;3.862;2022-07-05T05:14:50;2.43;;;2.20;;
10550;SDS011;5324;50.684;3.862;2022-07-05T05:17:16;2.87;;;2.60;;
10550;SDS011;5324;50.684;3.862;2022-07-05T05:19:42;6.10;;;2.90;;
10550;SDS011;5324;50.684;3.862;2022-07-05T05:22:09;6.20;;;2.90;;
10550;SDS011;5324;50.684;3.862;2022-07-05T05:24:46;2.97;;;2.20;;
10550;SDS011;5324;50.684;3.862;2022-07-05T05:27:31;3.40;;;2.33;;
10550;SDS011;5324;50.684;3.862;2022-07-05T05:29:57;4.50;;;2.77;;
10550;SDS011;5324;50.684;3.862;2022-07-05T05:32:23;3.53;;;2.30;;
10550;SDS011;5324;50.684;3.862;2022-07-05T05:34:49;5.93;;;2.17;;
10550;SDS011;5324;50.684;3.862;2022-07-05T05:37:15;4.20;;;2.37;;
10550;SDS011;5324;50.684;3.862;2022-07-05T05:39:41;5.43;;;2.30;;
10550;SDS011;5324;50.684;3.862;2022-07-05T05:42:08;4.73;;;3.07;;
10550;SDS011;5324;50.684;3.862;2022-07-05T05:44:34;3.33;;;2.60;;
10550;SDS011;5324;50.684;3.862;2022-07-05T05:47:00;2.97;;;2.33;;
10550;SDS011;5324;50.684;3.862;2022-07-05T05:49:26;3.47;;;2.47;;
10550;SDS011;5324;50.684;3.862;2022-07-05T05:51:52;3.73;;;2.30;;
10550;SDS011;5324;50.684;3.862;2022-07-05T05:54:18;7.10;;;2.60;;
10550;SDS011;5324;50.684;3.862;2022-07-05T05:56:44;3.67;;;2.57;;
10550;SDS011;5324;50.684;3.862;2022-07-05T05:59:10;3.77;;;2.40;;
10550;SDS011;5324;50.684;3.862;2022-07-05T06:01:36;5.33;;;2.43;;
10550;SDS011;5324;50.684;3.862;2022-07-05T06:04:01;3.93;;;2.63;;
10550;SDS011;5324;50.684;3.862;2022-07-05T06:06:28;5.73;;;2.53;;
10550;SDS011;5324;50.684;3.862;2022-07-05T06:08:54;3.97;;;2.30;;
10550;SDS011;5324;50.684;3.862;2022-07-05T06:11:20;4.80;;;2.80;;
10550;SDS011;5324;50.684;3.862;2022-07-05T06:13:46;7.80;;;3.17;;
10550;SDS011;5324;50.684;3.862;2022-07-05T06:16:12;5.03;;;2.50;;
10550;SDS011;5324;50.684;3.862;2022-07-05T06:18:38;6.20;;;3.00;;
10550;SDS011;5324;50.684;3.862;2022-07-05T06:21:04;5.60;;;2.70;;
10550;SDS011;5324;50.684;3.862;2022-07-05T06:23:30;6.17;;;2.50;;
10550;SDS011;5324;50.684;3.862;2022-07-05T06:25:56;2.58;;;2.38;;
10550;SDS011;5324;50.684;3.862;2022-07-05T06:28:22;6.57;;;3.20;;
10550;SDS011;5324;50.684;3.862;2022-07-05T06:30:48;6.53;;;3.22;;
10550;SDS011;5324;50.684;3.862;2022-07-05T06:33:14;6.10;;;3.20;;
10550;SDS011;5324;50.684;3.862;2022-07-05T06:35:40;6.32;;;3.10;;
10550;SDS011;5324;50.684;3.862;2022-07-05T06:38:07;7.85;;;3.30;;
10550;SDS011;5324;50.684;3.862;2022-07-05T06:40:34;7.32;;;3.00;;
10550;SDS011;5324;50.684;3.862;2022-07-05T06:43:01;3.53;;;3.10;;
10550;SDS011;5324;50.684;3.862;2022-07-05T06:45:28;7.15;;;3.53;;
10550;SDS011;5324;50.684;3.862;2022-07-05T06:48:01;5.60;;;3.53;;
10550;SDS011;5324;50.684;3.862;2022-07-05T06:50:28;5.47;;;3.28;;
10550;SDS011;5324;50.684;3.862;2022-07-05T06:52:54;7.18;;;3.55;;
10550;SDS011;5324;50.684;3.862;2022-07-05T06:55:21;6.57;;;3.20;;
10550;SDS011;5324;50.684;3.862;2022-07-05T06:57:47;5.90;;;3.03;;
10550;SDS011;5324;50.684;3.862;2022-07-05T07:00:14;5.18;;;3.05;;
10550;SDS011;5324;50.684;3.862;2022-07-05T07:02:40;4.38;;;3.05;;
10550;SDS011;5324;50.684;3.862;2022-07-05T07:05:06;5.25;;;3.10;;
10550;SDS011;5324;50.684;3.862;2022-07-05T07:07:33;5.07;;;3.03;;
10550;SDS011;5324;50.684;3.862;2022-07-05T07:10:18;7.35;;;3.47;;
10550;SDS011;5324;50.684;3.862;2022-07-05T07:12:44;5.57;;;3.28;;
10550;SDS011;5324;50.684;3.862;2022-07-05T07:15:10;8.98;;;3.95;;
10550;SDS011;5324;50.684;3.862;2022-07-05T07:17:36;6.93;;;3.50;;
10550;SDS011;5324;50.684;3.862;2022-07-05T07:20:02;4.47;;;2.95;;
10550;SDS011;5324;50.684;3.862;2022-07-05T07:22:28;5.68;;;3.30;;
10550;SDS011;5324;50.684;3.862;2022-07-05T07:24:54;5.78;;;3.65;;
10550;SDS011;5324;50.684;3.862;2022-07-05T07:27:20;6.38;;;3.60;;
10550;SDS011;5324;50.684;3.862;2022-07-05T07:29:46;8.02;;;3.50;;
10550;SDS011;5324;50.684;3.862;2022-07-05T07:32:13;7.35;;;3.78;;
10550;SDS011;5324;50.684;3.862;2022-07-05T07:34:39;8.35;;;3.88;;
10550;SDS011;5324;50.684;3.862;2022-07-05T07:37:05;7.30;;;3.97;;
10550;SDS011;5324;50.684;3.862;2022-07-05T07:39:34;7.28;;;3.83;;
10550;SDS011;5324;50.684;3.862;2022-07-05T07:42:00;6.43;;;3.63;;
10550;SDS011;5324;50.684;3.862;2022-07-05T07:44:26;6.93;;;3.95;;
10550;SDS011;5324;50.684;3.862;2022-07-05T07:46:52;6.00;;;3.75;;
10550;SDS011;5324;50.684;3.862;2022-07-05T07:49:18;5.18;;;3.88;;
10550;SDS011;5324;50.684;3.862;2022-07-05T07:51:44;6.05;;;3.80;;
10550;SDS011;5324;50.684;3.862;2022-07-05T07:54:10;9.45;;;4.65;;
10550;SDS011;5324;50.684;3.862;2022-07-05T07:56:36;7.95;;;3.92;;
10550;SDS011;5324;50.684;3.862;2022-07-05T07:59:02;9.02;;;3.72;;
10550;SDS011;5324;50.684;3.862;2022-07-05T08:01:28;5.95;;;3.47;;
10550;SDS011;5324;50.684;3.862;2022-07-05T08:03:56;7.82;;;3.92;;
10550;SDS011;5324;50.684;3.862;2022-07-05T08:06:22;10.13;;;3.67;;
10550;SDS011;5324;50.684;3.862;2022-07-05T08:08:48;8.48;;;4.40;;
10550;SDS011;5324;50.684;3.862;2022-07-05T08:11:14;8.70;;;3.17;;
10550;SDS011;5324;50.684;3.862;2022-07-05T08:13:40;5.22;;;3.83;;
10550;SDS011;5324;50.684;3.862;2022-07-05T08:16:07;8.90;;;3.63;;
10550;SDS011;5324;50.684;3.862;2022-07-05T08:18:33;7.57;;;3.58;;
10550;SDS011;5324;50.684;3.862;2022-07-05T08:21:18;8.25;;;3.83;;
10550;SDS011;5324;50.684;3.862;2022-07-05T08:23:59;7.00;;;3.65;;
10550;SDS011;5324;50.684;3.862;2022-07-05T08:26:26;9.75;;;3.72;;
10550;SDS011;5324;50.684;3.862;2022-07-05T08:28:52;5.18;;;2.72;;
10550;SDS011;5324;50.684;3.862;2022-07-05T08:31:19;5.47;;;2.85;;
10550;SDS011;5324;50.684;3.862;2022-07-05T08:33:45;7.65;;;3.40;;
10550;SDS011;5324;50.684;3.862;2022-07-05T08:36:11;2.78;;;2.08;;
10550;SDS011;5324;50.684;3.862;2022-07-05T08:38:37;5.65;;;3.03;;
10550;SDS011;5324;50.684;3.862;2022-07-05T08:41:03;5.80;;;2.92;;
10550;SDS011;5324;50.684;3.862;2022-07-05T08:43:33;4.10;;;2.45;;
10550;SDS011;5324;50.684;3.862;2022-07-05T08:46:00;4.28;;;2.50;;
10550;SDS011;5324;50.684;3.862;2022-07-05T08:48:26;5.00;;;3.00;;
10550;SDS011;5324;50.684;3.862;2022-07-05T08:50:53;7.93;;;5.13;;
10550;SDS011;5324;50.684;3.862;2022-07-05T08:53:20;7.70;;;3.20;;
10550;SDS011;5324;50.684;3.862;2022-07-05T08:55:46;3.97;;;2.90;;
10550;SDS011;5324;50.684;3.862;2022-07-05T08:58:13;4.22;;;2.60;;
10550;SDS011;5324;50.684;3.862;2022-07-05T09:00:39;6.70;;;2.25;;
10550;SDS011;5324;50.684;3.862;2022-07-05T09:03:06;4.47;;;2.63;;
10550;SDS011;5324;50.684;3.862;2022-07-05T09:05:34;4.40;;;2.25;;
10550;SDS011;5324;50.684;3.862;2022-07-05T09:08:05;4.30;;;2.20;;
10550;SDS011;5324;50.684;3.862;2022-07-05T09:10:33;5.78;;;2.50;;
10550;SDS011;5324;50.684;3.862;2022-07-05T09:12:59;4.25;;;1.83;;
10550;SDS011;5324;50.684;3.862;2022-07-05T09:15:25;4.03;;;2.33;;
10550;SDS011;5324;50.684;3.862;2022-07-05T09:17:51;5.82;;;2.40;;
10550;SDS011;5324;50.684;3.862;2022-07-05T09:20:18;4.25;;;2.25;;
10550;SDS011;5324;50.684;3.862;2022-07-05T09:22:45;4.57;;;2.53;;
10550;SDS011;5324;50.684;3.862;2022-07-05T09:25:12;6.22;;;3.03;;
10550;SDS011;5324;50.684;3.862;2022-07-05T09:27:48;4.25;;;2.58;;
10550;SDS011;5324;50.684;3.862;2022-07-05T09:32:59;6.35;;;2.47;;
10550;SDS011;5324;50.684;3.862;2022-07-05T09:35:27;4.10;;;2.38;;
10550;SDS011;5324;50.684;3.862;2022-07-05T09:37:53;6.70;;;2.03;;
10550;SDS011;5324;50.684;3.862;2022-07-05T09:40:19;7.22;;;2.80;;
10550;SDS011;5324;50.684;3.862;2022-07-05T09:42:45;3.28;;;2.47;;
10550;SDS011;5324;50.684;3.862;2022-07-05T09:45:11;3.30;;;1.63;;
10550;SDS011;5324;50.684;3.862;2022-07-05T09:47:38;3.15;;;1.98;;
10550;SDS011;5324;50.684;3.862;2022-07-05T09:50:04;3.67;;;1.75;;
10550;SDS011;5324;50.684;3.862;2022-07-05T09:57:31;4.70;;;1.90;;
10550;SDS011;5324;50.684;3.862;2022-07-05T10:00:02;4.53;;;2.08;;
10550;SDS011;5324;50.684;3.862;2022-07-05T10:02:35;7.43;;;2.38;;
10550;SDS011;5324;50.684;3.862;2022-07-05T10:07:34;7.50;;;2.30;;
10550;SDS011;5324;50.684;3.862;2022-07-05T10:10:02;2.42;;;1.90;;
10550;SDS011;5324;50.684;3.862;2022-07-05T10:12:28;5.03;;;2.20;;
10550;SDS011;5324;50.684;3.862;2022-07-05T10:14:56;3.90;;;1.92;;
10550;SDS011;5324;50.684;3.862;2022-07-05T10:17:23;3.33;;;2.20;;
10550;SDS011;5324;50.684;3.862;2022-07-05T10:19:49;4.72;;;2.13;;
10550;SDS011;5324;50.684;3.862;2022-07-05T10:22:16;4.55;;;2.22;;
10550;SDS011;5324;50.684;3.862;2022-07-05T10:24:42;2.65;;;1.80;;
10550;SDS011;5324;50.684;3.862;2022-07-05T10:27:08;5.70;;;1.80;;
10550;SDS011;5324;50.684;3.862;2022-07-05T10:29:34;4.53;;;1.85;;
10550;SDS011;5324;50.684;3.862;2022-07-05T10:32:01;3.60;;;1.80;;
10550;SDS011;5324;50.684;3.862;2022-07-05T10:34:27;5.72;;;2.72;;
10550;SDS011;5324;50.684;3.862;2022-07-05T10:36:54;3.97;;;1.92;;
10550;SDS011;5324;50.684;3.862;2022-07-05T10:39:20;8.02;;;3.35;;
10550;SDS011;5324;50.684;3.862;2022-07-05T10:41:48;2.90;;;1.92;;
10550;SDS011;5324;50.684;3.862;2022-07-05T10:47:11;2.55;;;1.70;;
10550;SDS011;5324;50.684;3.862;2022-07-05T10:49:38;3.20;;;1.80;;
10550;SDS011;5324;50.684;3.862;2022-07-05T10:52:05;2.75;;;1.80;;
10550;SDS011;5324;50.684;3.862;2022-07-05T10:57:33;4.10;;;2.42;;
10550;SDS011;5324;50.684;3.862;2022-07-05T11:00:10;3.03;;;1.98;;
10550;SDS011;5324;50.684;3.862;2022-07-05T11:02:37;7.03;;;2.50;;
10550;SDS011;5324;50.684;3.862;2022-07-05T11:05:03;4.07;;;1.90;;
10550;SDS011;5324;50.684;3.862;2022-07-05T11:10:14;3.60;;;2.28;;
10550;SDS011;5324;50.684;3.862;2022-07-05T11:12:40;2.78;;;2.10;;
10550;SDS011;5324;50.684;3.862;2022-07-05T11:15:07;4.40;;;2.00;;
10550;SDS011;5324;50.684;3.862;2022-07-05T11:17:33;4.25;;;2.10;;
10550;SDS011;5324;50.684;3.862;2022-07-05T11:22:27;5.20;;;2.55;;
10550;SDS011;5324;50.684;3.862;2022-07-05T11:24:55;13.15;;;2.90;;
10550;SDS011;5324;50.684;3.862;2022-07-05T11:27:21;2.40;;;2.00;;
10550;SDS011;5324;50.684;3.862;2022-07-05T11:29:51;2.60;;;2.35;;
10550;SDS011;5324;50.684;3.862;2022-07-05T11:34:49;5.38;;;2.60;;
10550;SDS011;5324;50.684;3.862;2022-07-05T11:37:25;7.20;;;3.00;;
10550;SDS011;5324;50.684;3.862;2022-07-05T11:42:32;11.00;;;3.33;;
10550;SDS011;5324;50.684;3.862;2022-07-05T11:45:07;10.23;;;3.70;;
10550;SDS011;5324;50.684;3.862;2022-07-05T11:47:33;2.92;;;2.63;;
10550;SDS011;5324;50.684;3.862;2022-07-05T11:49:59;5.38;;;3.47;;
10550;SDS011;5324;50.684;3.862;2022-07-05T11:52:29;3.83;;;3.47;;
10550;SDS011;5324;50.684;3.862;2022-07-05T11:54:56;5.45;;;3.50;;
10550;SDS011;5324;50.684;3.862;2022-07-05T11:57:22;6.00;;;3.17;;
10550;SDS011;5324;50.684;3.862;2022-07-05T11:59:48;9.52;;;4.68;;
10550;SDS011;5324;50.684;3.862;2022-07-05T12:02:15;5.65;;;3.30;;
10550;SDS011;5324;50.684;3.862;2022-07-05T12:04:46;3.22;;;2.92;;
10550;SDS011;5324;50.684;3.862;2022-07-05T12:07:12;5.20;;;3.30;;
10550;SDS011;5324;50.684;3.862;2022-07-05T12:09:38;5.40;;;3.15;;
10550;SDS011;5324;50.684;3.862;2022-07-05T12:12:23;3.80;;;2.85;;
10550;SDS011;5324;50.684;3.862;2022-07-05T12:15:26;3.10;;;2.90;;
10550;SDS011;5324;50.684;3.862;2022-07-05T12:17:52;5.30;;;3.45;;
10550;SDS011;5324;50.684;3.862;2022-07-05T12:20:23;3.28;;;2.70;;
10550;SDS011;5324;50.684;3.862;2022-07-05T12:22:50;2.60;;;2.40;;
10550;SDS011;5324;50.684;3.862;2022-07-05T12:25:18;3.50;;;2.30;;
10550;SDS011;5324;50.684;3.862;2022-07-05T12:27:45;3.00;;;2.50;;
10550;SDS011;5324;50.684;3.862;2022-07-05T12:30:12;4.65;;;2.63;;
10550;SDS011;5324;50.684;3.862;2022-07-05T12:35:53;3.65;;;1.98;;
10550;SDS011;5324;50.684;3.862;2022-07-05T12:38:13;4.28;;;2.40;;
10550;SDS011;5324;50.684;3.862;2022-07-05T12:40:44;4.35;;;2.53;;
10550;SDS011;5324;50.684;3.862;2022-07-05T12:43:12;2.30;;;2.00;;
10550;SDS011;5324;50.684;3.862;2022-07-05T12:45:39;2.50;;;1.67;;
10550;SDS011;5324;50.684;3.862;2022-07-05T12:48:06;2.95;;;1.67;;
10550;SDS011;5324;50.684;3.862;2022-07-05T12:50:48;3.22;;;1.73;;
10550;SDS011;5324;50.684;3.862;2022-07-05T12:53:15;2.85;;;1.70;;
10550;SDS011;5324;50.684;3.862;2022-07-05T12:56:02;1.67;;;1.58;;
10550;SDS011;5324;50.684;3.862;2022-07-05T12:58:51;1.70;;;1.60;;
10550;SDS011;5324;50.684;3.862;2022-07-05T13:04:01;2.10;;;1.90;;
10550;SDS011;5324;50.684;3.862;2022-07-05T13:07:09;3.50;;;1.73;;
10550;SDS011;5324;50.684;3.862;2022-07-05T13:09:37;2.80;;;1.90;;
10550;SDS011;5324;50.684;3.862;2022-07-05T13:12:16;2.30;;;1.60;;
10550;SDS011;5324;50.684;3.862;2022-07-05T13:14:52;2.65;;;1.60;;
10550;SDS011;5324;50.684;3.862;2022-07-05T13:17:19;6.63;;;2.10;;
10550;SDS011;5324;50.684;3.862;2022-07-05T13:19:46;2.97;;;1.80;;
10550;SDS011;5324;50.684;3.862;2022-07-05T13:22:12;1.67;;;1.50;;
10550;SDS011;5324;50.684;3.862;2022-07-05T13:24:39;2.95;;;1.83;;
10550;SDS011;5324;50.684;3.862;2022-07-05T13:27:05;3.20;;;1.58;;
10550;SDS011;5324;50.684;3.862;2022-07-05T13:29:32;2.83;;;1.70;;
10550;SDS011;5324;50.684;3.862;2022-07-05T13:31:58;5.18;;;1.80;;
10550;SDS011;5324;50.684;3.862;2022-07-05T13:34:24;2.97;;;1.83;;
10550;SDS011;5324;50.684;3.862;2022-07-05T13:36:51;2.85;;;1.63;;
10550;SDS011;5324;50.684;3.862;2022-07-05T13:39:18;2.55;;;1.50;;
10550;SDS011;5324;50.684;3.862;2022-07-05T13:41:45;2.00;;;1.88;;
10550;SDS011;5324;50.684;3.862;2022-07-05T13:44:12;2.67;;;1.73;;
10550;SDS011;5324;50.684;3.862;2022-07-05T13:46:38;5.88;;;2.08;;
10550;SDS011;5324;50.684;3.862;2022-07-05T13:49:04;2.40;;;1.60;;
10550;SDS011;5324;50.684;3.862;2022-07-05T13:51:30;2.00;;;1.80;;
10550;SDS011;5324;50.684;3.862;2022-07-05T13:53:56;6.03;;;1.50;;
10550;SDS011;5324;50.684;3.862;2022-07-05T13:56:22;2.67;;;1.33;;
10550;SDS011;5324;50.684;3.862;2022-07-05T13:58:48;1.65;;;1.50;;
10550;SDS011;5324;50.684;3.862;2022-07-05T14:01:14;2.80;;;1.83;;
10550;SDS011;5324;50.684;3.862;2022-07-05T14:03:41;3.08;;;1.70;;
10550;SDS011;5324;50.684;3.862;2022-07-05T14:06:08;1.67;;;1.42;;
10550;SDS011;5324;50.684;3.862;2022-07-05T14:08:34;2.38;;;1.50;;
10550;SDS011;5324;50.684;3.862;2022-07-05T14:11:00;2.88;;;1.73;;
10550;SDS011;5324;50.684;3.862;2022-07-05T14:13:27;4.63;;;1.67;;
10550;SDS011;5324;50.684;3.862;2022-07-05T14:15:54;2.03;;;1.50;;
10550;SDS011;5324;50.684;3.862;2022-07-05T14:18:21;1.67;;;1.40;;
10550;SDS011;5324;50.684;3.862;2022-07-05T14:20:49;3.45;;;1.63;;
10550;SDS011;5324;50.684;3.862;2022-07-05T14:23:15;3.00;;;1.40;;
10550;SDS011;5324;50.684;3.862;2022-07-05T14:25:42;4.32;;;1.80;;
10550;SDS011;5324;50.684;3.862;2022-07-05T14:28:08;2.78;;;1.33;;
10550;SDS011;5324;50.684;3.862;2022-07-05T14:30:38;2.10;;;1.40;;
10550;SDS011;5324;50.684;3.862;2022-07-05T14:33:05;2.35;;;1.55;;
10550;SDS011;5324;50.684;3.862;2022-07-05T14:35:32;1.88;;;1.67;;
10550;SDS011;5324;50.684;3.862;2022-07-05T14:37:58;2.25;;;1.27;;
10550;SDS011;5324;50.684;3.862;2022-07-05T14:40:25;3.22;;;1.58;;
10550;SDS011;5324;50.684;3.862;2022-07-05T14:42:51;2.10;;;1.40;;
10550;SDS011;5324;50.684;3.862;2022-07-05T14:45:17;1.65;;;1.55;;
10550;SDS011;5324;50.684;3.862;2022-07-05T14:47:43;1.42;;;1.33;;
10550;SDS011;5324;50.684;3.862;2022-07-05T14:50:10;3.30;;;1.48;;
10550;SDS011;5324;50.684;3.862;2022-07-05T14:52:36;3.35;;;1.60;;
10550;SDS011;5324;50.684;3.862;2022-07-05T14:55:02;1.67;;;1.35;;
10550;SDS011;5324;50.684;3.862;2022-07-05T14:57:28;1.45;;;1.30;;
10550;SDS011;5324;50.684;3.862;2022-07-05T14:59:54;2.95;;;1.60;;
10550;SDS011;5324;50.684;3.862;2022-07-05T15:02:20;5.63;;;1.92;;
10550;SDS011;5324;50.684;3.862;2022-07-05T15:04:46;2.35;;;1.55;;
10550;SDS011;5324;50.684;3.862;2022-07-05T15:07:13;8.02;;;1.75;;
10550;SDS011;5324;50.684;3.862;2022-07-05T15:09:39;2.60;;;1.60;;
10550;SDS011;5324;50.684;3.862;2022-07-05T15:12:05;3.75;;;1.60;;
10550;SDS011;5324;50.684;3.862;2022-07-05T15:14:31;1.52;;;1.40;;
10550;SDS011;5324;50.684;3.862;2022-07-05T15:16:57;2.72;;;1.65;;
10550;SDS011;5324;50.684;3.862;2022-07-05T15:19:23;1.88;;;1.30;;
10550;SDS011;5324;50.684;3.862;2022-07-05T15:21:49;5.10;;;1.45;;
10550;SDS011;5324;50.684;3.862;2022-07-05T15:24:16;3.03;;;1.38;;
10550;SDS011;5324;50.684;3.862;2022-07-05T15:26:44;1.35;;;1.25;;
10550;SDS011;5324;50.684;3.862;2022-07-05T15:29:10;1.23;;;1.13;;
10550;SDS011;5324;50.684;3.862;2022-07-05T15:31:36;2.72;;;1.38;;